Time;durP1;ratioP1;P1;durP2;ratioP2;P2;SDS_P1;SDS_P2;PMS_P1;PMS_P2;Temp;Humidity;BMP_temperature;BMP_pressure;BME280_temperature;BME280_humidity;BME280_pressure;Samples;Min_cycle;Max_cycle;Signal;HPM_P1;HPM_P2
2023/10/12 00:00:06;;;;;;;3.00;1.55;;;;;;;21.86;49.80;100094.94;4615976;27;20118;-62
2023/10/12 00:02:32;;;;;;;2.00;1.23;;;;;;;21.86;49.49;100097.81;4618285;27;20100;-62
2023/10/12 00:05:00;;;;;;;3.88;1.60;;;;;;;21.83;49.72;100089.97;4617497;27;20625;-62
2023/10/12 00:07:25;;;;;;;2.20;1.60;;;;;;;21.88;49.79;100091.69;4614973;27;20129;-62
2023/10/12 00:09:35;;;;;;;3.33;2.22;;;;;;;21.85;49.46;100078.91;4616590;27;20032;-62
2023/10/12 00:11:57;;;;;;;2.35;1.50;;;;;;;21.86;49.72;100080.56;4617106;27;20039;-63
2023/10/12 00:14:07;;;;;;;2.53;1.80;;;;;;;21.85;49.49;100084.66;4615433;27;20027;-62
2023/10/12 00:16:18;;;;;;;3.65;1.50;;;;;;;21.85;49.73;100084.66;4616264;27;20113;-62
2023/10/12 00:18:31;;;;;;;2.22;1.50;;;;;;;21.85;49.86;100093.25;4616110;27;20046;-62
2023/10/12 00:20:44;;;;;;;2.85;1.55;;;;;;;21.85;49.74;100090.38;4615694;27;20634;-62
2023/10/12 00:22:54;;;;;;;2.40;1.60;;;;;;;21.86;49.73;100083.44;4615920;27;20181;-62
2023/10/12 00:25:05;;;;;;;2.50;1.65;;;;;;;21.86;49.70;100089.19;4597736;27;21099;-62
2023/10/12 00:27:15;;;;;;;2.42;1.60;;;;;;;21.84;49.58;100082.16;4617446;27;20480;-62
2023/10/12 00:29:26;;;;;;;2.60;1.50;;;;;;;21.83;49.82;100072.75;4617432;27;20043;-62
2023/10/12 00:31:42;;;;;;;2.63;1.60;;;;;;;21.86;49.62;100082.59;4618214;27;20038;-62
2023/10/12 00:33:52;;;;;;;3.28;1.63;;;;;;;21.85;49.67;100087.50;4604455;27;20085;-62
2023/10/12 00:36:19;;;;;;;2.40;1.63;;;;;;;21.85;49.77;100084.66;4616212;27;20042;-62
2023/10/12 00:38:31;;;;;;;2.03;1.60;;;;;;;21.87;49.88;100079.34;4617427;27;20088;-62
2023/10/12 00:40:48;;;;;;;2.92;1.50;;;;;;;21.85;50.05;100076.03;4617713;27;20780;-62
2023/10/12 00:43:01;;;;;;;2.22;1.55;;;;;;;21.85;49.74;100081.78;4615565;27;20613;-62
2023/10/12 00:45:19;;;;;;;2.65;1.65;;;;;;;21.79;50.00;100066.09;4615582;27;20043;-62
2023/10/12 00:47:43;;;;;;;2.90;1.50;;;;;;;21.80;49.79;100064.88;4621198;27;20047;-62
2023/10/12 00:49:55;;;;;;;2.17;1.38;;;;;;;21.85;49.67;100064.53;4617596;27;20066;-62
2023/10/12 00:52:13;;;;;;;3.28;1.63;;;;;;;21.85;50.01;100078.91;4616012;27;20523;-62
2023/10/12 00:56:45;;;;;;;2.63;1.70;;;;;;;21.84;50.00;100062.88;4617372;27;20126;-62
2023/10/12 00:58:57;;;;;;;2.53;1.60;;;;;;;21.87;50.09;100072.75;4615010;27;20056;-62
2023/10/12 01:01:08;;;;;;;2.72;1.73;;;;;;;21.86;50.47;100065.38;4604286;27;20035;-62
2023/10/12 01:03:31;;;;;;;2.45;1.60;;;;;;;21.86;49.95;100060.47;4617047;27;20643;-62
2023/10/12 01:05:53;;;;;;;3.67;1.60;;;;;;;21.83;50.40;100049.75;4614877;27;20042;-62
2023/10/12 01:08:04;;;;;;;2.60;1.42;;;;;;;21.87;50.44;100056.34;4614013;27;20047;-62
2023/10/12 01:10:17;;;;;;;2.78;1.52;;;;;;;21.79;50.18;100042.28;4604638;27;20521;-62
2023/10/12 01:12:31;;;;;;;4.13;1.52;;;;;;;21.85;50.41;100043.63;4617040;27;20031;-62
2023/10/12 01:14:47;;;;;;;3.80;1.70;;;;;;;21.83;50.58;100044.00;4598638;27;20036;-62
2023/10/12 01:16:58;;;;;;;3.28;1.60;;;;;;;21.83;50.52;100054.66;4617712;27;20030;-62
2023/10/12 01:19:08;;;;;;;2.65;1.17;;;;;;;21.84;50.59;100057.16;4616189;27;20039;-62
2023/10/12 01:21:20;;;;;;;3.58;2.00;;;;;;;21.85;50.94;100058.78;4616974;27;20062;-62
2023/10/12 01:23:32;;;;;;;2.65;1.60;;;;;;;21.86;50.65;100063.34;4615328;27;20033;-62
2023/10/12 01:25:46;;;;;;;2.50;1.52;;;;;;;21.82;50.95;100059.56;4616461;27;20608;-62
2023/10/12 01:28:00;;;;;;;2.95;1.50;;;;;;;21.82;50.91;100059.56;4616960;27;20739;-62
2023/10/12 01:30:23;;;;;;;4.55;1.65;;;;;;;21.85;51.25;100076.03;4617036;27;20030;-62
2023/10/12 01:32:37;;;;;;;3.08;1.80;;;;;;;21.81;51.17;100066.53;4616608;27;20077;-62
2023/10/12 01:34:55;;;;;;;2.65;1.65;;;;;;;21.82;51.16;100064.47;4617048;27;20020;-62
2023/10/12 01:37:21;;;;;;;2.70;1.50;;;;;;;21.85;50.91;100064.53;4615787;27;20035;-62
2023/10/12 01:39:36;;;;;;;1.83;1.42;;;;;;;21.82;50.84;100073.09;4603881;27;20198;-62
2023/10/12 01:41:52;;;;;;;;;;;;;;;21.86;51.20;100074.81;4616814;27;20125;-62
2023/10/12 01:44:10;;;;;;;2.42;1.50;;;;;;;21.78;51.49;100070.19;4615355;27;19923;-62
2023/10/12 01:46:22;;;;;;;2.15;1.52;;;;;;;21.85;51.86;100084.66;4604027;27;20063;-62
2023/10/12 01:48:33;;;;;;;2.75;1.73;;;;;;;21.85;52.19;100084.66;4616471;27;20035;-62
2023/10/12 01:50:44;;;;;;;2.58;1.63;;;;;;;21.84;52.76;100085.88;4614390;27;20046;-62
2023/10/12 01:52:58;;;;;;;2.42;1.55;;;;;;;21.86;52.86;100089.19;4632370;27;20057;-62
2023/10/12 01:55:16;;;;;;;3.65;1.85;;;;;;;21.86;53.22;100089.19;4614138;27;20019;-62
2023/10/12 01:57:31;;;;;;;2.58;1.80;;;;;;;21.84;53.45;100074.38;4616190;27;20956;-62
2023/10/12 01:59:42;;;;;;;3.05;1.63;;;;;;;21.84;53.40;100085.03;4616895;27;20076;-62
2023/10/12 02:02:05;;;;;;;2.58;1.80;;;;;;;21.74;53.42;100069.25;4614003;27;20030;-62
2023/10/12 02:04:16;;;;;;;2.78;1.70;;;;;;;21.84;53.58;100085.03;4616353;27;20035;-62
2023/10/12 02:06:29;;;;;;;2.75;1.50;;;;;;;21.85;53.87;100098.19;4614927;27;20039;-62
2023/10/12 02:08:45;;;;;;;2.33;1.85;;;;;;;21.86;53.68;100109.31;4615437;27;20035;-62
2023/10/12 02:10:58;;;;;;;3.25;1.95;;;;;;;21.82;53.70;100096.91;4614432;27;20093;-62
2023/10/12 02:13:10;;;;;;;2.05;1.60;;;;;;;21.85;53.84;100107.63;4613531;27;20039;-62
2023/10/12 02:15:23;;;;;;;2.95;1.85;;;;;;;21.85;53.61;100109.69;4615379;27;20058;-62
2023/10/12 02:17:35;;;;;;;3.33;1.67;;;;;;;21.87;54.03;100110.94;4615601;27;21300;-62
2023/10/12 02:19:49;;;;;;;3.55;1.80;;;;;;;21.84;54.01;100100.25;4614864;27;20143;-63
2023/10/12 02:22:04;;;;;;;2.80;1.60;;;;;;;21.80;54.00;100101.41;4614874;27;20043;-62
2023/10/12 02:24:18;;;;;;;3.75;1.70;;;;;;;21.86;54.29;100117.94;4614460;27;20027;-62
2023/10/12 02:28:46;;;;;;;2.70;1.80;;;;;;;21.85;54.23;100127.75;4615441;27;20683;-62
2023/10/12 02:30:57;;;;;;;2.90;1.85;;;;;;;21.82;54.54;100127.69;4614156;27;20023;-62
2023/10/12 02:33:12;;;;;;;2.55;1.80;;;;;;;21.85;54.47;100133.50;4613588;27;20034;-62
2023/10/12 02:35:23;;;;;;;2.75;1.80;;;;;;;21.85;54.80;100147.03;4615382;27;20037;-62
2023/10/12 02:37:36;;;;;;;3.25;1.80;;;;;;;21.85;54.92;100159.34;4616150;27;20037;-62
2023/10/12 02:39:46;;;;;;;3.22;1.83;;;;;;;21.84;54.79;100157.69;4613332;27;20067;-63
2023/10/12 02:42:38;;;;;;;2.95;1.80;;;;;;;21.85;55.17;100173.72;4614388;27;20034;-63
2023/10/12 02:44:34;;;;;;;3.58;1.90;;;;;;;21.85;54.89;100179.47;4615844;27;20047;-63
2023/10/12 02:49:25;;;;;;;3.10;1.95;;;;;;;21.86;55.84;100186.88;4562091;27;20045;-63
2023/10/12 02:51:37;;;;;;;2.80;1.80;;;;;;;21.84;55.72;100183.56;4603852;27;20035;-63
2023/10/12 02:53:50;;;;;;;2.75;1.90;;;;;;;21.87;55.91;100193.44;4615042;27;20591;-63
2023/10/12 02:56:06;;;;;;;3.08;1.85;;;;;;;21.84;56.18;100188.47;4613794;27;20039;-63
2023/10/12 02:58:19;;;;;;;2.55;1.92;;;;;;;21.83;56.35;100193.41;4597889;27;20039;-63
2023/10/12 03:00:43;;;;;;;3.15;1.90;;;;;;;21.83;56.22;100204.06;4615834;27;20036;-63
2023/10/12 03:02:55;;;;;;;3.47;1.80;;;;;;;21.86;56.19;100204.13;4614248;27;20035;-63
2023/10/12 03:05:07;;;;;;;3.38;1.70;;;;;;;21.85;56.51;100210.25;4616195;27;20139;-63
2023/10/12 03:07:22;;;;;;;2.35;1.77;;;;;;;21.85;56.65;100208.19;4617653;27;20038;-63
2023/10/12 03:09:37;;;;;;;2.78;2.00;;;;;;;21.85;57.00;100216.00;4599884;27;20802;-63
2023/10/12 03:11:47;;;;;;;2.80;1.75;;;;;;;21.84;56.73;100223.78;4618131;27;20038;-63
2023/10/12 03:14:04;;;;;;;3.55;1.90;;;;;;;21.84;56.97;100232.41;4618255;27;20023;-63
2023/10/12 03:16:22;;;;;;;3.28;2.08;;;;;;;21.84;56.92;100234.44;4619192;27;20034;-63
2023/10/12 03:18:34;;;;;;;3.88;2.10;;;;;;;21.85;57.12;100236.13;4619986;27;20035;-63
2023/10/12 03:21:00;;;;;;;2.75;1.92;;;;;;;21.85;56.97;100242.66;4601037;27;20866;-63
2023/10/12 03:23:14;;;;;;;3.38;2.00;;;;;;;21.84;56.69;100228.69;4619147;27;20031;-63
2023/10/12 03:25:42;;;;;;;2.97;2.17;;;;;;;21.86;57.09;100237.75;4617421;27;20552;-63
2023/10/12 03:27:53;;;;;;;4.05;2.35;;;;;;;21.86;57.04;100232.00;4618973;27;20039;-63
2023/10/12 03:30:09;;;;;;;3.53;2.25;;;;;;;21.79;57.09;100221.22;4618187;27;20486;-63
2023/10/12 03:32:23;;;;;;;4.30;2.45;;;;;;;21.86;56.75;100234.88;4618404;27;20027;-63
2023/10/12 03:34:46;;;;;;;3.90;2.50;;;;;;;21.80;57.16;100222.88;4616541;27;20026;-63
2023/10/12 03:37:01;;;;;;;3.20;2.45;;;;;;;21.87;57.20;100230.78;4616404;27;20860;-63
2023/10/12 03:43:39;;;;;;;3.85;2.60;;;;;;;21.85;57.25;100224.63;4617797;27;20034;-63
2023/10/12 03:46:00;;;;;;;3.67;2.53;;;;;;;21.85;57.34;100213.13;4617121;27;20082;-63
2023/10/12 03:48:23;;;;;;;4.07;2.40;;;;;;;21.83;57.38;100204.91;4619071;27;20035;-63
2023/10/12 03:50:53;;;;;;;3.15;2.38;;;;;;;21.85;57.04;100202.44;4617987;27;20039;-63
2023/10/12 03:53:05;;;;;;;3.88;2.58;;;;;;;21.87;56.84;100207.81;4615630;27;20638;-63
2023/10/12 03:55:19;;;;;;;3.65;2.70;;;;;;;21.84;57.06;100203.66;4617221;27;20031;-63
2023/10/12 03:57:45;;;;;;;4.18;2.65;;;;;;;21.85;57.41;100207.38;4617585;27;20046;-63
2023/10/12 04:02:24;;;;;;;3.33;2.40;;;;;;;21.87;56.64;100210.69;4614084;27;20046;-63
2023/10/12 04:04:45;;;;;;;3.80;2.55;;;;;;;21.83;56.29;100207.78;4618495;27;20019;-63
2023/10/12 04:07:15;;;;;;;3.70;2.40;;;;;;;21.85;55.98;100207.38;4616827;27;20151;-63
2023/10/12 04:09:42;;;;;;;3.38;2.30;;;;;;;21.85;56.12;100216.00;4616103;27;20104;-63
2023/10/12 04:11:53;;;;;;;3.08;2.40;;;;;;;21.73;55.42;100193.16;4617163;27;20028;-63
2023/10/12 04:14:43;;;;;;;3.38;2.45;;;;;;;21.83;55.88;100210.63;4617465;27;20032;-63
2023/10/12 04:17:08;;;;;;;3.30;2.30;;;;;;;21.81;55.98;100198.69;4614998;27;20043;-63
2023/10/12 04:19:29;;;;;;;3.85;2.75;;;;;;;21.85;55.53;100193.81;4618064;27;20051;-63
2023/10/12 04:21:40;;;;;;;4.18;2.55;;;;;;;21.84;55.68;100197.94;4618945;27;20041;-63
2023/10/12 04:28:32;;;;;;;3.95;2.65;;;;;;;21.82;55.28;100190.88;4617315;27;20031;-63
2023/10/12 04:33:15;;;;;;;3.25;2.35;;;;;;;21.84;55.86;100186.44;4604807;27;20036;-63
2023/10/12 04:37:51;;;;;;;4.43;2.63;;;;;;;21.83;55.95;100196.28;4616228;27;20072;-63
2023/10/12 04:40:14;;;;;;;2.70;2.20;;;;;;;21.84;55.74;100209.41;4616608;27;20103;-63
2023/10/12 04:42:26;;;;;;;2.65;1.90;;;;;;;21.84;56.24;100218.03;4616709;27;20035;-63
2023/10/12 04:44:39;;;;;;;3.28;2.30;;;;;;;21.82;56.25;100219.63;4616687;27;20039;-63
2023/10/12 04:47:09;;;;;;;2.92;2.25;;;;;;;21.84;56.45;100235.28;4617285;27;20042;-63
2023/10/12 04:51:30;;;;;;;3.55;2.20;;;;;;;21.81;56.54;100226.59;4617876;27;20055;-63
2023/10/12 04:53:57;;;;;;;3.53;2.30;;;;;;;21.81;56.43;100227.44;4616465;27;20031;-64
2023/10/12 04:56:10;;;;;;;2.70;2.00;;;;;;;21.85;56.42;100238.97;4616476;27;20054;-63
2023/10/12 05:00:48;;;;;;;3.15;2.28;;;;;;;21.84;56.23;100240.19;4616269;27;20114;-64
2023/10/12 05:03:02;;;;;;;2.58;2.30;;;;;;;21.82;56.51;100240.56;4616563;27;20114;-63
2023/10/12 05:05:15;;;;;;;3.78;2.65;;;;;;;21.84;56.76;100246.75;4615162;27;20027;-63
2023/10/12 05:07:28;;;;;;;3.65;2.40;;;;;;;21.79;56.76;100235.59;4615289;27;20047;-63
2023/10/12 05:09:38;;;;;;;3.15;2.38;;;;;;;21.84;56.61;100241.03;4617349;27;20035;-63
2023/10/12 05:11:48;;;;;;;3.38;2.53;;;;;;;21.83;56.40;100241.41;4617086;27;20038;-63
2023/10/12 05:14:01;;;;;;;3.75;2.30;;;;;;;21.83;56.61;100250.88;4614900;27;20035;-63
2023/10/12 05:16:15;;;;;;;3.13;2.17;;;;;;;21.83;56.72;100250.88;4615001;27;20026;-63
2023/10/12 05:18:25;;;;;;;3.72;2.30;;;;;;;21.85;56.50;100247.59;4617811;27;20059;-63
2023/10/12 05:20:41;;;;;;;3.88;2.40;;;;;;;21.81;56.63;100241.78;4618111;27;20067;-63
2023/10/12 05:22:51;;;;;;;2.92;2.30;;;;;;;21.79;56.44;100247.09;4615857;27;20123;-63
2023/10/12 05:25:03;;;;;;;3.03;2.30;;;;;;;21.78;56.47;100258.97;4616444;27;20448;-63
2023/10/12 05:27:24;;;;;;;3.70;2.17;;;;;;;21.84;56.31;100269.75;4611637;27;20155;-63
2023/10/12 05:29:35;;;;;;;4.00;2.33;;;;;;;21.80;56.14;100250.78;4614968;27;20077;-63
2023/10/12 05:31:59;;;;;;;3.50;2.05;;;;;;;21.81;56.10;100247.53;4615789;27;20030;-63
2023/10/12 05:34:26;;;;;;;2.72;2.08;;;;;;;21.80;55.98;100242.97;4617316;27;20027;-63
2023/10/12 05:36:38;;;;;;;3.42;2.13;;;;;;;21.82;56.10;100260.69;4617603;27;20105;-63
2023/10/12 05:38:52;;;;;;;3.00;1.90;;;;;;;21.83;56.44;100244.28;4615930;27;20023;-63
2023/10/12 05:41:10;;;;;;;3.45;1.92;;;;;;;21.83;56.02;100250.88;4615997;27;20035;-63
2023/10/12 05:43:22;;;;;;;3.08;2.22;;;;;;;21.83;56.31;100250.88;4615814;27;20035;-63
2023/10/12 05:45:33;;;;;;;2.75;2.00;;;;;;;21.83;56.08;100244.28;4615328;27;20065;-63
2023/10/12 05:47:44;;;;;;;3.17;1.90;;;;;;;21.81;55.93;100246.69;4615981;27;20125;-63
2023/10/12 05:49:57;;;;;;;3.38;2.13;;;;;;;21.81;55.89;100253.28;4616832;27;20050;-63
2023/10/12 05:52:08;;;;;;;2.92;2.10;;;;;;;21.80;55.71;100245.84;4614873;27;20039;-63
2023/10/12 05:54:20;;;;;;;2.58;1.70;;;;;;;21.83;55.87;100244.28;4615449;27;20050;-63
2023/10/12 05:56:32;;;;;;;2.05;1.65;;;;;;;21.76;56.29;100232.66;4616545;27;20031;-63
2023/10/12 05:58:43;;;;;;;2.97;2.00;;;;;;;21.71;56.20;100236.66;4618020;27;20042;-63
2023/10/12 06:00:54;;;;;;;3.03;1.83;;;;;;;21.82;56.41;100266.44;4615635;27;20514;-63
2023/10/12 06:03:05;;;;;;;2.50;1.90;;;;;;;21.83;56.23;100273.84;4614330;27;20040;-63
2023/10/12 06:05:17;;;;;;;3.30;1.85;;;;;;;21.81;56.06;100282.00;4614992;27;20491;-63
2023/10/12 06:07:27;;;;;;;3.10;1.60;;;;;;;21.82;56.08;100295.16;4614399;27;20039;-63
2023/10/12 06:09:38;;;;;;;3.47;1.77;;;;;;;21.71;56.33;100281.78;4614462;27;20777;-63
2023/10/12 06:11:50;;;;;;;2.33;1.63;;;;;;;21.83;55.85;100296.00;4613821;27;20031;-63
2023/10/12 06:14:00;;;;;;;2.08;1.50;;;;;;;21.81;56.45;100295.53;4617274;27;20145;-63
2023/10/12 06:16:20;;;;;;;2.15;1.63;;;;;;;21.81;56.02;100310.75;4614403;27;20023;-63
2023/10/12 06:18:31;;;;;;;2.72;1.60;;;;;;;21.81;56.02;100305.00;4616283;27;20037;-63
2023/10/12 06:20:42;;;;;;;3.40;1.40;;;;;;;21.81;56.44;100313.63;4614470;27;20102;-63
2023/10/12 06:22:52;;;;;;;3.08;1.50;;;;;;;21.81;56.17;100299.25;4615820;27;20109;-63
2023/10/12 06:25:10;;;;;;;2.85;1.65;;;;;;;21.79;56.03;100313.16;4615762;27;20031;-64
2023/10/12 06:29:32;;;;;;;2.80;1.52;;;;;;;21.81;56.31;100315.66;4615053;27;20058;-63
2023/10/12 06:31:42;;;;;;;2.47;1.70;;;;;;;21.81;56.33;100319.38;4615568;27;20043;-63
2023/10/12 06:33:55;;;;;;;2.10;1.60;;;;;;;21.82;56.52;100317.28;4616570;27;20032;-63
2023/10/12 06:36:05;;;;;;;2.38;1.63;;;;;;;21.80;56.60;100326.31;4614898;27;20046;-63
2023/10/12 06:38:22;;;;;;;2.30;1.60;;;;;;;21.81;56.49;100313.63;4615299;27;20395;-63
2023/10/12 06:42:45;;;;;;;2.47;1.50;;;;;;;21.78;56.62;100323.00;4621058;27;20038;-63
2023/10/12 06:44:55;;;;;;;2.55;1.60;;;;;;;21.81;56.51;100324.28;4619491;27;20027;-63
2023/10/12 06:47:28;;;;;;;3.17;1.52;;;;;;;21.80;56.55;100319.75;4607368;27;20036;-63
2023/10/12 06:49:44;;;;;;;2.25;1.55;;;;;;;21.74;56.58;100304.81;4618292;27;20746;-63
2023/10/12 06:52:01;;;;;;;2.90;1.70;;;;;;;21.80;56.97;100323.44;4619902;27;20035;-63
2023/10/12 06:54:31;;;;;;;3.20;1.63;;;;;;;21.81;56.65;100327.97;4620223;27;20027;-63
2023/10/12 06:56:41;;;;;;;2.10;1.50;;;;;;;21.80;56.77;100314.81;4618073;27;20592;-63
2023/10/12 07:01:27;;;;;;;2.00;1.50;;;;;;;21.79;56.63;100313.16;4617946;27;20037;-63
2023/10/12 07:03:37;;;;;;;2.83;1.67;;;;;;;21.82;56.65;100318.13;4616485;27;20027;-63
2023/10/12 07:05:52;;;;;;;2.30;1.40;;;;;;;21.78;56.93;100317.25;4618223;27;20019;-63
2023/10/12 07:08:07;;;;;;;2.10;1.60;;;;;;;21.79;56.78;100333.28;4618264;27;20845;-64
2023/10/12 07:10:28;;;;;;;2.90;1.67;;;;;;;21.79;56.70;100330.41;4632873;27;20031;-63
2023/10/12 07:12:48;;;;;;;2.67;1.42;;;;;;;21.75;57.20;100318.03;4619463;27;20043;-63
2023/10/12 07:14:59;;;;;;;2.75;1.67;;;;;;;21.79;57.13;100318.91;4618791;27;20038;-63
2023/10/12 07:17:10;;;;;;;3.25;1.65;;;;;;;21.74;57.05;100322.06;4617052;27;20110;-63
2023/10/12 07:19:23;;;;;;;1.63;1.30;;;;;;;21.78;56.98;100327.91;4617509;27;20428;-63
2023/10/12 07:21:33;;;;;;;2.38;1.40;;;;;;;21.81;56.95;100332.88;4605637;27;20102;-63
2023/10/12 07:23:43;;;;;;;2.85;1.42;;;;;;;21.81;57.00;100330.00;4617556;27;20552;-63
2023/10/12 07:25:59;;;;;;;2.75;1.67;;;;;;;21.79;57.01;100333.28;4617560;27;20044;-63
2023/10/12 07:28:18;;;;;;;2.55;1.75;;;;;;;21.81;56.99;100344.38;4616959;27;20928;-63
2023/10/12 07:30:33;;;;;;;2.58;1.48;;;;;;;21.76;57.09;100336.91;4617942;27;20074;-63
2023/10/12 07:32:55;;;;;;;2.58;1.40;;;;;;;21.75;57.16;100335.25;4617314;27;20145;-63
2023/10/12 07:35:17;;;;;;;1.90;1.40;;;;;;;21.76;57.21;100334.03;4617170;27;20537;-63
2023/10/12 07:37:31;;;;;;;2.00;1.48;;;;;;;21.80;57.22;100325.50;4617643;27;20119;-63
2023/10/12 07:39:42;;;;;;;2.55;1.65;;;;;;;21.70;57.37;100321.19;4618629;27;20108;-63
2023/10/12 07:42:01;;;;;;;2.42;1.50;;;;;;;21.77;57.33;100335.69;4617172;27;20751;-63
2023/10/12 07:44:12;;;;;;;2.28;1.50;;;;;;;21.76;57.28;100331.16;4617503;27;20032;-63
2023/10/12 07:46:25;;;;;;;2.70;1.65;;;;;;;21.77;57.44;100341.44;4616945;27;20535;-63
2023/10/12 07:48:45;;;;;;;3.17;1.67;;;;;;;21.79;57.62;100341.06;4618366;27;20027;-63
2023/10/12 07:51:59;;;;;;;2.58;1.52;;;;;;;21.75;57.24;100343.88;4618181;27;20034;-63
2023/10/12 07:53:37;;;;;;;3.67;1.77;;;;;;;21.80;57.62;100354.22;4604043;27;20595;-63
2023/10/12 07:55:56;;;;;;;2.95;1.70;;;;;;;21.79;57.13;100347.63;4615487;27;20033;-63
2023/10/12 07:58:12;;;;;;;3.17;1.70;;;;;;;21.79;57.45;100346.78;4616520;27;20135;-63
2023/10/12 08:04:58;;;;;;;2.65;1.63;;;;;;;21.76;57.04;100348.41;4618762;27;20733;-63
2023/10/12 08:07:09;;;;;;;2.97;1.70;;;;;;;21.74;57.26;100341.34;4615725;27;20043;-63
2023/10/12 08:11:38;;;;;;;2.50;1.50;;;;;;;21.78;57.28;100351.72;4617994;27;20527;-63
2023/10/12 08:13:48;;;;;;;2.38;1.70;;;;;;;21.79;56.86;100356.25;4616512;27;20031;-63
2023/10/12 08:15:59;;;;;;;2.63;1.70;;;;;;;21.80;57.02;100359.97;4617134;27;20036;-63
2023/10/12 08:18:51;;;;;;;4.53;1.70;;;;;;;21.74;57.38;100353.66;4616480;27;20031;-63
2023/10/12 08:20:53;;;;;;;2.17;1.65;;;;;;;21.78;57.24;100365.25;4614444;27;20890;-63
2023/10/12 08:23:04;;;;;;;2.88;1.83;;;;;;;21.78;57.37;100368.97;4617273;27;20122;-63
2023/10/12 08:25:15;;;;;;;2.65;1.65;;;;;;;21.78;57.27;100368.97;4617631;27;20125;-63
2023/10/12 08:27:26;;;;;;;2.78;1.58;;;;;;;21.78;57.18;100374.72;4616967;27;20050;-63
2023/10/12 08:32:11;;;;;;;3.38;1.25;;;;;;;21.78;57.21;100380.47;4617348;27;20491;-63
2023/10/12 08:39:37;;;;;;;3.40;1.60;;;;;;;21.77;57.21;100384.53;4600394;27;20074;-63
2023/10/12 08:42:29;;;;;;;1.95;1.50;;;;;;;21.75;57.27;100383.22;4618143;27;20774;-63
2023/10/12 08:44:29;;;;;;;4.25;1.90;;;;;;;21.79;57.57;100387.00;4616773;27;20043;-63
2023/10/12 08:48:53;;;;;;;1.67;1.35;;;;;;;21.78;57.47;100391.94;4616097;27;20531;-63
2023/10/12 08:51:09;;;;;;;3.15;1.75;;;;;;;21.78;57.92;100391.94;4616998;27;20031;-63
2023/10/12 08:53:22;;;;;;;2.38;1.50;;;;;;;21.78;57.69;100386.22;4616408;27;20110;-63
2023/10/12 08:55:36;;;;;;;3.25;1.52;;;;;;;21.76;58.16;100390.66;4617235;27;20342;-63
2023/10/12 08:58:11;;;;;;;2.40;1.60;;;;;;;21.78;57.77;100400.56;4615479;27;20027;-63
2023/10/12 09:02:49;;;;;;;3.20;1.92;;;;;;;21.76;57.95;100388.63;4617214;27;20080;-63
2023/10/12 09:04:59;;;;;;;2.22;1.60;;;;;;;21.75;57.69;100389.84;4617465;27;20542;-63
2023/10/12 09:07:16;;;;;;;2.22;1.45;;;;;;;21.77;57.90;100393.16;4617513;27;20563;-63
2023/10/12 09:11:59;;;;;;;3.80;1.60;;;;;;;21.78;57.66;100403.44;4618568;27;20819;-62
2023/10/12 09:14:15;;;;;;;4.60;1.67;;;;;;;21.76;58.29;100400.13;4613804;27;20031;-62
2023/10/12 09:16:27;;;;;;;2.83;1.63;;;;;;;21.78;58.09;100403.44;4616340;27;20168;-63
2023/10/12 09:18:45;;;;;;;2.28;1.60;;;;;;;21.76;58.09;100411.59;4615648;27;20019;-63
2023/10/12 09:23:13;;;;;;;2.53;1.65;;;;;;;21.74;57.65;100405.38;4619504;27;20031;-63
2023/10/12 09:25:49;;;;;;;2.10;1.60;;;;;;;21.74;58.47;100405.38;4598355;27;20027;-63
2023/10/12 09:27:57;;;;;;;3.83;1.80;;;;;;;21.73;57.89;100408.63;4616085;27;20073;-62
2023/10/12 09:30:16;;;;;;;3.30;1.60;;;;;;;21.75;58.15;100415.69;4614873;27;20058;-62
2023/10/12 09:32:28;;;;;;;3.45;1.58;;;;;;;21.77;57.98;100410.38;4615022;27;20039;-63
2023/10/12 09:34:42;;;;;;;2.30;1.60;;;;;;;21.76;58.16;100413.63;4603559;27;20070;-62
2023/10/12 09:36:53;;;;;;;2.03;1.33;;;;;;;21.76;58.31;100420.22;4612988;27;20702;-62
2023/10/12 09:39:12;;;;;;;2.55;1.60;;;;;;;21.77;57.68;100430.50;4617557;27;20039;-62
2023/10/12 09:41:29;;;;;;;2.65;1.60;;;;;;;21.77;57.54;100441.97;4616670;27;20031;-63
2023/10/12 09:43:44;;;;;;;2.65;1.80;;;;;;;21.76;57.70;100443.22;4617619;27;20084;-63
2023/10/12 09:45:58;;;;;;;3.80;1.70;;;;;;;21.73;58.16;100431.59;4616398;27;20775;-63
2023/10/12 09:48:17;;;;;;;2.10;1.55;;;;;;;21.75;58.06;100438.69;4616095;27;20047;-63
2023/10/12 09:50:32;;;;;;;2.00;1.50;;;;;;;21.76;58.48;100434.59;4614795;27;20039;-63
2023/10/12 09:52:46;;;;;;;2.17;1.70;;;;;;;21.77;58.44;100430.50;4613463;27;20039;-63
2023/10/12 09:55:07;;;;;;;2.60;1.58;;;;;;;21.72;58.96;100427.88;4616851;27;20589;-63
2023/10/12 09:57:27;;;;;;;2.47;1.60;;;;;;;21.75;58.87;100424.31;4615182;27;20092;-63
2023/10/12 09:59:39;;;;;;;2.75;1.83;;;;;;;21.76;59.49;100428.00;4616115;27;20042;-63
2023/10/12 10:01:50;;;;;;;3.83;1.70;;;;;;;21.73;59.60;100420.94;4616148;27;20863;-63
2023/10/12 10:04:27;;;;;;;3.00;1.67;;;;;;;21.74;59.06;100425.47;4615868;27;20031;-63
2023/10/12 10:06:37;;;;;;;3.42;1.70;;;;;;;21.76;59.82;100425.13;4613391;27;20040;-63
2023/10/12 10:09:09;;;;;;;2.25;1.58;;;;;;;21.73;59.87;100423.81;4615665;27;20905;-64
2023/10/12 10:11:26;;;;;;;2.55;1.60;;;;;;;21.73;60.01;100422.97;4615994;27;20031;-63
2023/10/12 10:13:47;;;;;;;3.20;1.70;;;;;;;21.77;59.82;100432.56;4598414;27;20032;-63
2023/10/12 10:16:00;;;;;;;2.63;1.70;;;;;;;21.73;60.01;100429.56;4633049;27;20026;-63
2023/10/12 10:18:16;;;;;;;3.90;1.95;;;;;;;21.74;59.97;100433.28;4614928;27;21461;-63
2023/10/12 10:22:38;;;;;;;3.33;1.65;;;;;;;21.76;60.38;100440.34;4618485;27;20027;-63
2023/10/12 10:24:55;;;;;;;2.33;1.80;;;;;;;21.69;60.33;100422.09;4616246;27;20041;-63
2023/10/12 10:27:35;;;;;;;4.32;2.00;;;;;;;21.76;59.99;100433.75;4611942;27;20051;-63
2023/10/12 10:29:54;;;;;;;3.42;1.90;;;;;;;21.73;60.42;100432.44;4608727;27;20619;-63
2023/10/12 10:32:04;;;;;;;3.53;1.88;;;;;;;21.71;60.52;100426.25;4613238;27;20920;-63
2023/10/12 10:34:23;;;;;;;3.08;2.03;;;;;;;21.77;60.76;100436.25;4615823;27;20066;-63
2023/10/12 10:36:34;;;;;;;3.42;2.00;;;;;;;21.75;60.94;100432.94;4615593;27;20039;-63
2023/10/12 10:41:05;;;;;;;3.85;1.80;;;;;;;21.65;60.63;100422.03;4615109;27;20037;-63
2023/10/12 10:43:16;;;;;;;3.75;1.60;;;;;;;21.71;60.77;100425.41;4615848;27;20861;-63
2023/10/12 10:45:27;;;;;;;3.40;1.63;;;;;;;21.73;60.62;100429.56;4605287;27;20019;-63
2023/10/12 10:47:49;;;;;;;2.38;1.60;;;;;;;21.72;60.56;100425.00;4615707;27;20640;-63
2023/10/12 10:50:00;;;;;;;2.75;1.85;;;;;;;21.75;60.32;100427.19;4614347;27;20027;-63
2023/10/12 10:52:14;;;;;;;2.75;1.70;;;;;;;21.78;60.21;100431.34;4615620;27;20043;-63
2023/10/12 10:54:26;;;;;;;2.58;1.77;;;;;;;21.72;60.03;100422.16;4616065;27;20066;-63
2023/10/12 10:56:47;;;;;;;2.95;1.90;;;;;;;21.70;59.68;100418.84;4614431;27;20633;-63
2023/10/12 10:58:59;;;;;;;3.00;1.60;;;;;;;21.76;59.77;100430.88;4616140;27;20027;-62
2023/10/12 11:01:12;;;;;;;2.95;1.77;;;;;;;21.75;59.55;100421.44;4615319;27;21292;-63
2023/10/12 11:03:24;;;;;;;3.58;1.85;;;;;;;21.72;60.07;100416.41;4615457;27;20039;-63
2023/10/12 11:05:37;;;;;;;3.58;2.03;;;;;;;21.74;59.86;100414.00;4614966;27;20066;-63
2023/10/12 11:07:50;;;;;;;2.65;1.50;;;;;;;21.73;60.37;100414.38;4616477;27;20906;-63
2023/10/12 11:12:14;;;;;;;2.63;1.90;;;;;;;21.72;60.56;100406.97;4615586;27;20036;-63
2023/10/12 11:14:25;;;;;;;2.88;2.03;;;;;;;21.76;60.08;100422.25;4596708;27;20150;-63
2023/10/12 11:16:43;;;;;;;3.42;1.67;;;;;;;21.73;59.96;100418.09;4615612;27;20031;-63
2023/10/12 11:18:55;;;;;;;2.15;1.70;;;;;;;21.76;59.50;100417.34;4614707;27;20023;-63
2023/10/12 11:21:07;;;;;;;3.67;1.67;;;;;;;21.75;59.72;100409.09;4616026;27;20035;-63
2023/10/12 11:23:18;;;;;;;2.22;1.60;;;;;;;21.68;59.72;100398.28;4613778;27;20031;-63
2023/10/12 11:25:28;;;;;;;2.38;1.58;;;;;;;21.72;59.91;100396.28;4615205;27;20039;-63
2023/10/12 11:27:39;;;;;;;2.35;1.48;;;;;;;21.72;59.80;100396.28;4618509;27;20050;-63
2023/10/12 11:29:50;;;;;;;2.65;1.77;;;;;;;21.75;60.21;100388.97;4617601;27;20123;-63
2023/10/12 11:32:09;;;;;;;2.45;1.60;;;;;;;21.75;59.77;100404.22;4619159;27;20134;-63
2023/10/12 11:34:29;;;;;;;3.55;1.85;;;;;;;21.73;59.97;100395.09;4615536;27;20121;-63